Time;durP1;ratioP1;P1;durP2;ratioP2;P2;SDS_P1;SDS_P2;PMS_P1;PMS_P2;Temp;Humidity;BMP_temperature;BMP_pressure;BME280_temperature;BME280_humidity;BME280_pressure;Samples;Min_cycle;Max_cycle;Signal;HPM_P1;HPM_P2
2022/07/06 05:00:24;;;;;;;;;5.75;4.25;;;;;18.16;53.63;102507.47;2412483;28;45617;-75
2022/07/06 05:01:35;;;;;;;;;5.00;5.00;;;;;18.16;53.83;102504.81;2407531;28;45416;-75
2022/07/06 05:02:45;;;;;;;;;6.25;4.75;;;;;18.15;53.59;102505.72;2411629;28;47039;-75
2022/07/06 05:03:55;;;;;;;;;6.50;6.50;;;;;18.14;52.42;102506.66;2407010;28;45289;-75
2022/07/06 05:05:06;;;;;;;;;6.75;6.50;;;;;18.15;53.43;102500.41;2403959;28;46298;-75
2022/07/06 05:06:18;;;;;;;;;5.25;5.25;;;;;18.15;53.27;102499.56;2404927;28;45464;-75
2022/07/06 05:07:30;;;;;;;;;5.00;5.00;;;;;18.16;52.84;102499.47;2407833;28;45247;-75
2022/07/06 05:08:40;;;;;;;;;7.25;4.75;;;;;18.20;53.29;102502.91;2408832;28;45290;-75
2022/07/06 05:09:50;;;;;;;;;5.25;5.00;;;;;18.20;53.88;102495.81;2410061;28;46355;-75
2022/07/06 05:11:01;;;;;;;;;7.25;7.25;;;;;18.22;53.00;102495.78;2409944;28;45555;-75
2022/07/06 05:12:11;;;;;;;;;6.75;6.75;;;;;18.25;52.97;102505.44;2415859;28;46288;-75
2022/07/06 05:13:22;;;;;;;;;8.25;7.00;;;;;18.25;52.77;102508.09;2421025;28;45434;-75
2022/07/06 05:14:32;;;;;;;;;7.50;6.00;;;;;18.27;52.90;102511.56;2417475;28;45313;-75
2022/07/06 05:15:42;;;;;;;;;6.25;6.00;;;;;18.27;52.24;102506.25;2412628;28;45390;-75
2022/07/06 05:16:52;;;;;;;;;10.25;7.00;;;;;18.28;52.32;102505.28;2410375;28;46705;-75
2022/07/06 05:18:03;;;;;;;;;6.00;4.50;;;;;18.30;53.09;102503.44;2411759;28;44729;-75
2022/07/06 05:19:13;;;;;;;;;6.75;5.50;;;;;18.30;53.41;102499.00;2409341;28;46211;-75
2022/07/06 05:20:24;;;;;;;;;7.00;7.00;;;;;18.32;52.93;102501.63;2410167;28;45313;-75
2022/07/06 05:21:34;;;;;;;;;10.75;7.50;;;;;18.32;53.02;102504.28;2411350;28;45418;-75
2022/07/06 05:22:45;;;;;;;;;7.00;6.00;;;;;18.35;52.51;102506.78;2412203;28;44748;-75
2022/07/06 05:23:55;;;;;;;;;6.75;6.00;;;;;18.35;52.50;102508.63;2411289;28;45425;-75
2022/07/06 05:25:06;;;;;;;;;5.75;5.75;;;;;18.34;53.10;102505.06;2412121;28;44725;-75
2022/07/06 05:26:16;;;;;;;;;6.50;6.50;;;;;18.34;53.59;102505.06;2408626;28;45496;-75
2022/07/06 05:27:27;;;;;;;;;8.25;5.00;;;;;18.39;53.65;102504.91;2408499;28;45240;-75
2022/07/06 05:28:37;;;;;;;;;6.25;6.25;;;;;18.39;52.93;102508.44;2409092;28;45243;-75
2022/07/06 05:29:48;;;;;;;;;10.75;7.00;;;;;18.40;52.93;102509.28;2411830;28;45306;-75
2022/07/06 05:30:59;;;;;;;;;7.00;6.00;;;;;18.41;52.45;102505.72;2409613;28;45498;-75
2022/07/06 05:32:10;;;;;;;;;7.25;6.75;;;;;18.40;52.53;102507.50;2410500;28;45445;-76
2022/07/06 05:33:20;;;;;;;;;10.25;7.00;;;;;18.41;52.51;102506.59;2410662;28;45407;-76
2022/07/06 05:34:31;;;;;;;;;6.75;6.75;;;;;18.43;51.81;102504.72;2408850;28;45374;-76
2022/07/06 05:35:41;;;;;;;;;6.00;5.25;;;;;18.44;52.19;102509.13;2411054;28;45374;-76
2022/07/06 05:36:51;;;;;;;;;6.50;6.50;;;;;18.47;52.01;102507.28;2414194;28;45299;-76
2022/07/06 05:38:02;;;;;;;;;4.00;4.00;;;;;18.51;52.23;102503.56;2420607;28;46411;-75
2022/07/06 05:39:12;;;;;;;;;8.00;7.50;;;;;18.52;51.85;102503.47;2409595;28;45314;-76
2022/07/06 05:40:22;;;;;;;;;6.00;5.50;;;;;18.54;52.27;102498.97;2411129;28;45466;-75
2022/07/06 05:41:33;;;;;;;;;5.75;5.75;;;;;18.59;52.65;102501.47;2411562;28;45481;-75
2022/07/06 05:42:43;;;;;;;;;5.25;5.00;;;;;18.63;51.69;102502.22;2410190;28;45619;-76
2022/07/06 05:43:54;;;;;;;;;10.00;7.50;;;;;18.64;51.45;102502.13;2403021;28;44748;-76
2022/07/06 05:45:06;;;;;;;;;9.25;6.00;;;;;18.64;51.35;102502.13;2404628;28;46148;-76
2022/07/06 05:46:16;;;;;;;;;8.25;6.75;;;;;18.67;51.92;102499.34;2403003;28;45789;-76
2022/07/06 05:50:24;;;;;;;;;5.50;5.50;;;;;18.71;50.92;102512.56;2406688;28;45775;-75
2022/07/06 05:51:35;;;;;;;;;11.00;6.75;;;;;18.71;51.03;102513.44;2403421;28;44765;-75
2022/07/06 05:52:57;;;;;;;;;7.00;7.00;;;;;18.77;51.61;102517.63;2402654;28;45502;-76
2022/07/06 05:54:07;;;;;;;;;7.00;6.00;;;;;18.78;51.33;102519.38;2402906;28;45208;-75
2022/07/06 05:55:18;;;;;;;;;19.00;15.50;;;;;18.78;50.85;102520.25;2402808;28;45271;-75
2022/07/06 05:56:28;;;;;;;;;12.00;9.75;;;;;18.82;50.65;102528.97;2405833;28;45391;-76
2022/07/06 05:57:40;;;;;;;;;15.75;14.25;;;;;18.82;51.05;102523.66;2405013;28;46656;-75
2022/07/06 05:58:50;;;;;;;;;29.25;24.00;;;;;18.84;51.89;102534.25;2406616;28;44594;-75
2022/07/06 06:00:01;;;;;;;;;8.50;6.50;;;;;18.83;51.09;102536.06;2410491;28;45418;-75
2022/07/06 06:01:11;;;;;;;;;7.75;7.75;;;;;18.81;51.24;102535.25;2412131;28;45362;-75
2022/07/06 06:02:21;;;;;;;;;7.00;6.00;;;;;18.82;51.06;102539.63;2412185;28;45366;-75
2022/07/06 06:03:32;;;;;;;;;6.25;6.00;;;;;18.81;50.43;102543.25;2412420;28;44645;-75
2022/07/06 06:04:42;;;;;;;;;7.25;6.50;;;;;18.83;50.34;102537.84;2411998;28;46466;-75
2022/07/06 06:05:53;;;;;;;;;8.00;5.50;;;;;18.83;50.40;102536.06;2412253;28;45356;-75
2022/07/06 06:07:03;;;;;;;;;7.50;6.50;;;;;18.88;50.10;102535.88;2413049;28;46173;-75
2022/07/06 06:08:13;;;;;;;;;9.00;6.50;;;;;18.92;50.49;102537.47;2412079;28;44712;-76
2022/07/06 06:09:23;;;;;;;;;10.25;7.75;;;;;18.95;50.60;102537.34;2404213;28;45485;-75
2022/07/06 06:10:34;;;;;;;;;10.00;7.25;;;;;18.98;49.84;102534.56;2406589;28;45482;-76
2022/07/06 06:11:44;;;;;;;;;6.75;6.00;;;;;19.05;50.24;102540.50;2411591;28;46210;-75
2022/07/06 06:12:55;;;;;;;;;7.00;6.50;;;;;19.07;49.79;102535.09;2408357;28;45717;-76
2022/07/06 06:14:05;;;;;;;;;7.75;5.50;;;;;19.09;49.43;102536.78;2411766;28;45711;-75
2022/07/06 06:15:16;;;;;;;;;8.75;7.50;;;;;19.14;49.77;102530.41;2410240;28;45288;-75
2022/07/06 06:16:26;;;;;;;;;11.00;9.75;;;;;19.17;49.31;102536.50;2410764;28;46793;-75
2022/07/06 06:17:38;;;;;;;;;7.25;7.00;;;;;19.22;49.27;102536.31;2410996;28;45213;-77
2022/07/06 06:18:48;;;;;;;;;7.50;6.00;;;;;19.26;48.88;102535.25;2411820;28;45282;-76
2022/07/06 06:19:59;;;;;;;;;6.00;6.00;;;;;19.28;49.58;102538.75;2410508;28;45277;-75
2022/07/06 06:21:10;;;;;;;;;5.75;5.75;;;;;19.34;50.12;102535.81;2407324;28;45406;-75
2022/07/06 06:22:20;;;;;;;;;7.00;5.75;;;;;19.42;49.37;102534.63;2420866;28;45382;-75
2022/07/06 06:23:31;;;;;;;;;9.75;6.00;;;;;19.48;50.35;102529.03;2408441;28;46012;-75
2022/07/06 06:24:41;;;;;;;;;6.50;5.00;;;;;19.51;49.38;102528.88;2411719;28;45422;-75
2022/07/06 06:25:51;;;;;;;;;6.00;5.50;;;;;19.55;49.87;102530.50;2405987;28;46395;-75
2022/07/06 06:27:02;;;;;;;;;5.75;5.00;;;;;19.58;49.28;102540.19;2410151;28;45445;-75
2022/07/06 06:28:12;;;;;;;;;6.75;6.00;;;;;19.62;48.55;102527.56;2408548;28;45462;-75
2022/07/06 06:29:23;;;;;;;;;6.50;4.50;;;;;19.64;48.94;102528.34;2410582;28;45343;-76
2022/07/06 06:30:33;;;;;;;;;8.25;5.25;;;;;19.66;48.40;102534.50;2403663;28;45379;-75
2022/07/06 06:31:44;;;;;;;;;9.00;6.00;;;;;19.66;48.19;102538.03;2421771;28;45312;-75
2022/07/06 06:33:19;;;;;;;;;4.00;4.00;;;;;19.72;48.57;102531.56;2416321;28;46504;-75
2022/07/06 06:34:30;;;;;;;;;4.25;4.25;;;;;19.72;48.54;102531.56;2404351;28;44596;-75
2022/07/06 06:35:46;;;;;;;;;4.75;4.75;;;;;19.75;48.60;102528.78;2404271;28;45299;-75
2022/07/06 06:36:56;;;;;;;;;5.75;5.00;;;;;19.79;47.95;102532.16;2409773;28;44710;-75
2022/07/06 06:38:07;;;;;;;;;4.75;4.75;;;;;19.81;47.34;102524.97;2406221;28;45453;-75
2022/07/06 06:39:17;;;;;;;;;6.00;4.25;;;;;19.82;47.80;102534.69;2408187;28;45281;-75
2022/07/06 06:40:27;;;;;;;;;5.00;4.25;;;;;19.84;47.52;102535.50;2413657;28;45276;-75
2022/07/06 06:41:38;;;;;;;;;6.25;4.25;;;;;19.86;47.22;102528.28;2413816;28;45153;-75
2022/07/06 06:42:48;;;;;;;;;6.00;5.25;;;;;19.87;47.07;102529.16;2410401;28;46241;-77
2022/07/06 06:43:58;;;;;;;;;6.50;5.50;;;;;19.88;46.91;102530.88;2412014;28;45157;-75
2022/07/06 06:45:09;;;;;;;;;4.50;4.00;;;;;19.90;47.55;102524.53;2413279;28;45222;-75
2022/07/06 06:46:19;;;;;;;;;4.00;4.00;;;;;19.96;47.05;102527.88;2413611;28;44739;-75
2022/07/06 06:47:29;;;;;;;;;5.50;5.50;;;;;19.99;46.19;102527.75;2412731;28;45266;-75
2022/07/06 06:48:40;;;;;;;;;6.50;4.75;;;;;20.01;46.64;102520.53;2408171;28;45166;-75
2022/07/06 06:49:50;;;;;;;;;0.50;0.00;;;;;20.01;46.08;102524.06;2410552;28;46450;-75
2022/07/06 06:51:00;;;;;;;;;5.25;3.50;;;;;20.03;45.40;102534.66;2410531;28;45204;-75
2022/07/06 06:52:11;;;;;;;;;3.00;3.00;;;;;20.00;45.87;102530.34;2408588;28;45326;-75
2022/07/06 06:53:21;;;;;;;;;3.25;3.25;;;;;20.02;45.54;102536.50;2409627;28;45275;-75
2022/07/06 06:54:32;;;;;;;;;3.50;3.50;;;;;20.01;44.93;102532.06;2406983;28;46247;-75
2022/07/06 06:55:42;;;;;;;;;4.50;4.00;;;;;20.02;44.86;102538.28;2403858;28;45212;-75
2022/07/06 06:56:52;;;;;;;;;3.75;3.75;;;;;20.00;44.49;102538.34;2403865;28;45401;-75
2022/07/06 06:58:03;;;;;;;;;4.50;4.50;;;;;19.99;44.79;102539.28;2404218;28;45378;-75
2022/07/06 06:59:13;;;;;;;;;3.75;3.75;;;;;19.99;45.28;102544.63;2403680;28;45402;-75
2022/07/06 07:00:23;;;;;;;;;3.75;2.25;;;;;20.02;44.94;102547.16;2403879;28;45387;-75
2022/07/06 07:01:34;;;;;;;;;3.75;3.25;;;;;20.07;45.31;102540.75;2407412;28;46432;-75
2022/07/06 07:02:45;;;;;;;;;3.75;3.75;;;;;20.11;45.69;102543.25;2404247;28;44828;-75
2022/07/06 07:03:56;;;;;;;;;5.00;4.00;;;;;20.16;45.60;102539.47;2404937;28;46257;-75
2022/07/06 07:05:07;;;;;;;;;4.50;4.50;;;;;20.19;44.22;102534.88;2413634;28;44630;-75
2022/07/06 07:06:17;;;;;;;;;4.00;3.75;;;;;20.21;43.70;102542.81;2413339;28;45450;-75
2022/07/06 07:07:27;;;;;;;;;4.75;3.50;;;;;20.19;44.38;102537.56;2413452;28;44563;-75
2022/07/06 07:08:38;;;;;;;;;3.00;3.00;;;;;20.19;44.43;102540.22;2409478;28;47038;-75
2022/07/06 07:09:48;;;;;;;;;4.25;3.75;;;;;20.21;43.70;102548.16;2404391;28;45253;-75
2022/07/06 07:10:58;;;;;;;;;4.25;4.00;;;;;20.20;44.40;102549.13;2414336;28;45372;-75
2022/07/06 07:12:10;;;;;;;;;6.00;4.25;;;;;20.20;45.06;102552.63;2412679;28;45236;-75
2022/07/06 07:13:20;;;;;;;;;5.50;5.00;;;;;20.22;44.23;102545.41;2413060;28;45484;-75
2022/07/06 07:14:31;;;;;;;;;3.25;3.00;;;;;20.24;44.18;102545.34;2409676;28;45207;-75
2022/07/06 07:15:41;;;;;;;;;5.25;5.00;;;;;20.22;44.11;102545.41;2403914;28;45276;-75
2022/07/06 07:16:52;;;;;;;;;5.75;4.00;;;;;20.21;43.46;102549.03;2413633;28;45345;-75
2022/07/06 07:18:02;;;;;;;;;2.75;2.75;;;;;20.20;43.74;102541.94;2403038;28;47029;-75
2022/07/06 07:19:12;;;;;;;;;3.50;3.00;;;;;20.22;44.26;102541.88;2403709;28;44821;-76
2022/07/06 07:20:23;;;;;;;;;3.75;3.00;;;;;20.23;43.79;102547.16;2403988;28;45382;-75
2022/07/06 07:21:33;;;;;;;;;3.50;2.75;;;;;20.27;42.74;102557.69;2410782;28;44732;-75
2022/07/06 07:22:44;;;;;;;;;4.50;3.75;;;;;20.23;42.78;102552.50;2411441;28;46519;-75
2022/07/06 07:23:54;;;;;;;;;2.75;2.75;;;;;20.22;42.67;102545.41;2413560;28;45575;-75
2022/07/06 07:25:06;;;;;;;;;5.25;4.00;;;;;20.19;43.75;102550.91;2413170;28;45374;-75
2022/07/06 07:26:17;;;;;;;;;3.50;3.50;;;;;20.21;43.99;102548.16;2413472;28;45235;-75
2022/07/06 07:27:28;;;;;;;;;5.50;3.75;;;;;20.22;43.43;102556.09;2413317;28;45307;-75
2022/07/06 07:28:38;;;;;;;;;4.50;4.00;;;;;20.23;43.18;102546.28;2412586;28;45237;-75
2022/07/06 07:29:48;;;;;;;;;6.00;5.50;;;;;20.23;43.85;102547.16;2404896;28;46437;-75
2022/07/06 07:30:58;;;;;;;;;6.75;3.75;;;;;20.26;43.56;102556.81;2405680;28;45276;-75
2022/07/06 07:32:09;;;;;;;;;4.25;4.00;;;;;20.25;43.63;102547.06;2413198;28;46169;-75
2022/07/06 07:33:19;;;;;;;;;3.50;3.50;;;;;20.26;43.73;102545.28;2411741;28;44893;-75
2022/07/06 07:34:29;;;;;;;;;3.75;3.50;;;;;20.29;43.95;102546.00;2413186;28;46444;-75
2022/07/06 07:35:40;;;;;;;;;3.75;3.75;;;;;20.33;44.35;102552.06;2413277;28;45220;-76
2022/07/06 07:36:50;;;;;;;;;3.75;3.75;;;;;20.39;44.53;102549.13;2413112;28;45484;-75
2022/07/06 07:38:01;;;;;;;;;6.00;5.00;;;;;20.46;44.74;102541.69;2412230;28;45370;-75
2022/07/06 07:39:11;;;;;;;;;4.25;4.25;;;;;20.54;44.75;102552.03;2407899;28;45963;-75
2022/07/06 07:40:21;;;;;;;;;4.25;4.00;;;;;20.60;44.69;102551.72;2404878;28;45416;-76
2022/07/06 07:41:32;;;;;;;;;2.00;2.00;;;;;20.66;44.65;102545.22;2413253;28;45342;-75
2022/07/06 07:42:43;;;;;;;;;7.75;4.75;;;;;20.72;44.42;102544.06;2412845;28;45335;-75
2022/07/06 07:43:53;;;;;;;;;7.00;5.00;;;;;20.73;43.90;102544.00;2412036;28;47194;-75
2022/07/06 07:45:04;;;;;;;;;6.00;4.00;;;;;20.77;43.82;102544.69;2403222;28;45316;-76
2022/07/06 07:46:15;;;;;;;;;4.00;4.00;;;;;20.81;44.09;102546.31;2412670;28;46376;-75
2022/07/06 07:47:26;;;;;;;;;4.00;4.00;;;;;20.83;43.14;102541.75;2413257;28;45137;-75
2022/07/06 07:48:36;;;;;;;;;5.00;5.00;;;;;20.84;43.52;102538.13;2406699;28;46133;-75
2022/07/06 07:49:46;;;;;;;;;5.00;5.00;;;;;20.87;43.52;102537.97;2405006;28;45247;-75
2022/07/06 07:50:57;;;;;;;;;4.25;4.25;;;;;20.87;43.86;102537.97;2407616;28;46452;-76
2022/07/06 07:52:07;;;;;;;;;5.50;3.50;;;;;20.91;43.72;102534.19;2411353;28;44669;-76
2022/07/06 07:53:18;;;;;;;;;4.00;3.00;;;;;20.94;44.32;102535.84;2406566;28;45339;-76
2022/07/06 07:54:28;;;;;;;;;4.75;3.00;;;;;20.98;44.04;102537.47;2403827;28;45197;-75
2022/07/06 07:55:38;;;;;;;;;12.75;10.50;;;;;21.01;43.97;102537.31;2417356;28;47994;-76
2022/07/06 07:56:49;;;;;;;;;4.50;4.50;;;;;21.08;44.22;102540.59;2419644;28;45267;-75
2022/07/06 07:57:59;;;;;;;;;4.25;3.75;;;;;21.08;43.60;102532.56;2413160;28;45600;-75
2022/07/06 07:59:10;;;;;;;;;3.25;2.75;;;;;21.11;44.12;102531.53;2403627;28;45256;-75
2022/07/06 08:00:21;;;;;;;;;6.00;5.00;;;;;21.16;43.65;102539.34;2404118;28;45478;-75
2022/07/06 08:01:32;;;;;;;;;7.50;5.25;;;;;21.21;43.71;102539.97;2406407;28;45239;-75
2022/07/06 08:02:42;;;;;;;;;5.25;5.00;;;;;21.21;43.86;102537.31;2403378;28;45338;-75
2022/07/06 08:03:53;;;;;;;;;5.00;3.50;;;;;21.27;43.40;102536.09;2404001;28;45287;-75
2022/07/06 08:05:03;;;;;;;;;5.75;4.50;;;;;21.27;43.23;102536.09;2403477;28;45430;-75
2022/07/06 08:06:15;;;;;;;;;5.25;4.00;;;;;21.29;42.76;102531.53;2403671;28;45192;-75
2022/07/06 08:07:25;;;;;;;;;4.00;4.00;;;;;21.29;43.77;102535.09;2403900;28;45379;-75
2022/07/06 08:08:36;;;;;;;;;7.75;5.25;;;;;21.32;43.82;102532.28;2409519;28;45180;-75
2022/07/06 08:09:46;;;;;;;;;7.00;5.00;;;;;21.34;43.76;102522.34;2408145;28;45234;-75
2022/07/06 08:10:56;;;;;;;;;5.50;4.00;;;;;21.39;43.72;102529.25;2410889;28;45208;-75
2022/07/06 08:12:07;;;;;;;;;8.00;5.25;;;;;21.41;43.27;102524.72;2412744;28;45497;-75
2022/07/06 08:13:17;;;;;;;;;5.25;5.25;;;;;21.46;43.30;102525.34;2409996;28;45207;-75
2022/07/06 08:14:28;;;;;;;;;5.50;4.00;;;;;21.46;43.39;102530.69;2412442;28;45219;-75
2022/07/06 08:15:39;;;;;;;;;3.00;3.00;;;;;21.49;43.42;102519.84;2409850;28;45232;-75
2022/07/06 08:16:49;;;;;;;;;7.00;5.25;;;;;21.53;43.24;102523.22;2412079;28;47131;-76
2022/07/06 08:18:00;;;;;;;;;8.50;5.00;;;;;21.54;43.07;102523.13;2411963;28;45188;-75
2022/07/06 08:19:13;;;;;;;;;3.50;3.50;;;;;21.56;43.34;102521.25;2413046;28;46217;-75
2022/07/06 08:20:24;;;;;;;;;5.00;5.00;;;;;21.61;42.54;102517.50;2405941;28;45392;-74
2022/07/06 08:21:34;;;;;;;;;3.50;3.50;;;;;21.62;43.07;102519.19;2407043;28;45475;-75
2022/07/06 08:22:45;;;;;;;;;4.00;3.75;;;;;21.64;43.40;102514.63;2402933;28;45404;-75
2022/07/06 08:23:56;;;;;;;;;3.75;3.75;;;;;21.69;42.79;102520.59;2405779;28;45479;-74
2022/07/06 08:25:07;;;;;;;;;8.25;4.75;;;;;21.69;42.90;102517.94;2412850;28;44671;-74
2022/07/06 08:26:17;;;;;;;;;4.50;4.25;;;;;21.72;42.72;102520.47;2411985;28;47345;-75
2022/07/06 08:27:27;;;;;;;;;7.50;6.00;;;;;21.72;42.72;102519.59;2402636;28;45242;-75
2022/07/06 08:28:38;;;;;;;;;6.25;4.25;;;;;21.72;43.08;102530.28;2402977;28;46278;-75
2022/07/06 08:29:48;;;;;;;;;6.75;5.25;;;;;21.72;42.49;102524.94;2412228;28;45220;-74
2022/07/06 08:30:58;;;;;;;;;7.00;5.75;;;;;21.70;42.60;102525.88;2412744;28;45374;-74
2022/07/06 08:32:09;;;;;;;;;4.75;4.25;;;;;21.73;42.64;102521.31;2412086;28;45256;-74
2022/07/06 08:33:20;;;;;;;;;5.25;3.75;;;;;21.76;43.01;102523.81;2412321;28;45197;-75
2022/07/06 08:34:30;;;;;;;;;5.25;5.25;;;;;21.78;43.10;102527.31;2412891;28;45229;-74
2022/07/06 08:35:41;;;;;;;;;7.00;7.00;;;;;21.81;42.17;102528.00;2412686;28;46271;-74
2022/07/06 08:36:51;;;;;;;;;5.00;5.00;;;;;21.83;43.01;102527.06;2412860;28;45366;-74
2022/07/06 08:38:02;;;;;;;;;6.00;5.50;;;;;21.84;41.49;102534.13;2408072;28;46189;-75
2022/07/06 08:39:12;;;;;;;;;7.25;7.00;;;;;21.84;41.59;102528.78;2404228;28;45303;-74
2022/07/06 08:40:23;;;;;;;;;5.50;5.50;;;;;21.82;41.52;102528.88;2412741;28;46198;-75
2022/07/06 08:41:35;;;;;;;;;5.75;5.75;;;;;21.81;42.62;102519.97;2412834;28;45392;-74
2022/07/06 08:42:48;;;;;;;;;6.25;6.00;;;;;21.83;41.74;102519.88;2412614;28;46176;-74
2022/07/06 08:43:58;;;;;;;;;8.00;7.00;;;;;21.85;41.94;102528.72;2406070;28;45403;-74
2022/07/06 08:45:09;;;;;;;;;6.75;6.75;;;;;21.84;41.81;102523.41;2406462;28;47155;-74
2022/07/06 08:46:21;;;;;;;;;7.50;5.50;;;;;21.84;41.89;102528.78;2419144;28;44686;-74
2022/07/06 08:47:31;;;;;;;;;6.25;6.25;;;;;21.85;41.76;102531.38;2408370;28;45564;-74
2022/07/06 08:48:41;;;;;;;;;8.75;8.00;;;;;21.85;41.40;102530.50;2412803;28;45387;-74
2022/07/06 08:49:53;;;;;;;;;5.50;5.25;;;;;21.85;41.27;102533.19;2410833;28;46126;-74
2022/07/06 08:51:06;;;;;;;;;7.00;6.25;;;;;21.83;41.88;102529.75;2408996;28;45492;-75
2022/07/06 08:52:17;;;;;;;;;7.75;6.50;;;;;21.84;42.02;102528.78;2412314;28;45586;-75
2022/07/06 08:53:28;;;;;;;;;7.00;5.00;;;;;21.88;42.35;102522.34;2409249;28;44705;-75
2022/07/06 08:54:38;;;;;;;;;5.50;5.25;;;;;21.92;42.29;102532.81;2410675;28;46270;-75
2022/07/06 08:55:50;;;;;;;;;6.50;6.50;;;;;21.96;42.57;102521.94;2406792;28;44725;-75
2022/07/06 08:57:02;;;;;;;;;7.75;7.00;;;;;21.98;42.25;102520.91;2405206;28;45545;-74
2022/07/06 08:58:13;;;;;;;;;9.25;6.75;;;;;22.01;42.04;102520.75;2408326;28;45172;-74
2022/07/06 08:59:24;;;;;;;;;6.75;6.00;;;;;22.07;41.92;102524.03;2411191;28;47492;-74
2022/07/06 09:00:35;;;;;;;;;6.25;6.25;;;;;22.09;42.37;102519.47;2409894;28;44805;-75
2022/07/06 09:01:47;;;;;;;;;7.75;7.00;;;;;22.12;41.27;102527.34;2403133;28;45300;-74
2022/07/06 09:02:58;;;;;;;;;7.00;7.00;;;;;22.10;40.59;102518.53;2405375;28;45331;-74
2022/07/06 09:04:09;;;;;;;;;8.75;7.00;;;;;22.09;41.38;102512.31;2409684;28;46669;-74
2022/07/06 09:05:22;;;;;;;;;12.00;7.50;;;;;22.10;41.73;102513.16;2411990;28;45285;-75
2022/07/06 09:06:33;;;;;;;;;9.00;8.75;;;;;22.10;41.72;102523.88;2416449;28;45352;-75
2022/07/06 09:07:49;;;;;;;;;7.50;7.50;;;;;22.13;41.96;102515.66;2416031;28;45451;-75
2022/07/06 09:09:06;;;;;;;;;10.75;5.75;;;;;22.13;42.46;102513.84;2420726;28;48434;-74
2022/07/06 09:10:24;;;;;;;;;8.25;6.00;;;;;22.21;42.03;102505.41;2408950;28;45207;-74
2022/07/06 09:11:37;;;;;;;;;5.75;3.50;;;;;22.24;41.08;102507.91;2402998;28;46232;-75
2022/07/06 09:12:48;;;;;;;;;6.00;6.00;;;;;22.26;41.70;102516.72;2403014;28;45263;-74
2022/07/06 09:13:58;;;;;;;;;6.25;4.25;;;;;22.30;41.20;102516.56;2411233;28;47346;-75
2022/07/06 09:15:09;;;;;;;;;5.25;5.00;;;;;22.32;41.49;102512.00;2410048;28;46794;-75
2022/07/06 09:16:27;;;;;;;;;5.25;5.00;;;;;22.34;41.66;102510.97;2411684;28;47270;-75
2022/07/06 09:17:39;;;;;;;;;5.25;5.25;;;;;22.36;41.35;102517.09;2414332;28;45474;-74
2022/07/06 09:18:49;;;;;;;;;5.00;5.00;;;;;22.39;40.96;102512.50;2406996;28;45231;-75
2022/07/06 09:20:00;;;;;;;;;5.50;5.25;;;;;22.41;41.39;102511.47;2404779;28;45145;-74
2022/07/06 09:21:11;;;;;;;;;7.50;6.00;;;;;22.44;41.05;102514.00;2406420;28;45333;-74
2022/07/06 09:22:31;;;;;;;;;5.25;5.00;;;;;22.43;40.86;102517.59;2403475;28;45473;-79
2022/07/06 09:23:42;;;;;;;;;7.00;6.50;;;;;22.44;39.96;102514.00;2421047;28;48445;-74
2022/07/06 09:24:53;;;;;;;;;5.00;5.00;;;;;22.42;39.19;102518.53;2409198;28;44706;-74
2022/07/06 09:26:07;;;;;;;;;8.00;6.25;;;;;22.44;39.78;102516.66;2408637;28;46402;-74
2022/07/06 09:27:17;;;;;;;;;7.00;5.00;;;;;22.43;40.62;102514.94;2409468;28;45485;-74
2022/07/06 09:28:44;;;;;;;;;5.50;5.50;;;;;22.44;40.66;102511.31;2407445;28;46376;-74
2022/07/06 09:29:54;;;;;;;;;5.25;5.25;;;;;22.45;40.17;102510.34;2406398;28;44777;-74
2022/07/06 09:31:08;;;;;;;;;6.25;6.00;;;;;22.45;40.08;102513.03;2406823;28;48172;-74
2022/07/06 09:32:20;;;;;;;;;8.25;7.00;;;;;22.48;40.24;102523.56;2408839;28;45259;-74
2022/07/06 09:33:31;;;;;;;;;8.50;6.50;;;;;22.48;40.31;102512.84;2416701;28;47837;-74
2022/07/06 09:34:46;;;;;;;;;6.25;6.25;;;;;22.50;39.99;102510.06;2418511;28;45351;-74
2022/07/06 09:36:00;;;;;;;;;6.00;4.25;;;;;22.53;40.22;102503.69;2411416;28;47442;-74
2022/07/06 09:37:12;;;;;;;;;7.50;4.50;;;;;22.58;40.52;102504.28;2402939;28;44714;-74
2022/07/06 09:38:26;;;;;;;;;5.50;5.50;;;;;22.62;40.75;102502.31;2402996;28;45540;-74
2022/07/06 09:39:36;;;;;;;;;6.25;5.00;;;;;22.65;40.10;102503.00;2402845;28;45237;-74
2022/07/06 09:40:46;;;;;;;;;3.75;3.75;;;;;22.68;39.76;102492.09;2402761;28;46318;-74
2022/07/06 09:41:59;;;;;;;;;5.75;5.00;;;;;22.69;39.85;102499.22;2411586;28;45366;-74
2022/07/06 09:43:15;;;;;;;;;4.75;4.75;;;;;22.73;39.95;102496.38;2408839;28;46481;-74
2022/07/06 09:44:27;;;;;;;;;7.00;5.25;;;;;22.75;40.11;102498.00;2403960;28;45355;-74
2022/07/06 09:45:39;;;;;;;;;8.75;5.25;;;;;22.78;40.47;102488.94;2403531;28;46260;-74
2022/07/06 09:46:50;;;;;;;;;4.25;4.25;;;;;22.80;40.13;102495.94;2401831;28;44633;-74
2022/07/06 09:48:09;;;;;;;;;8.25;5.50;;;;;22.83;39.42;102494.88;2402193;28;45673;-74
2022/07/06 09:49:21;;;;;;;;;4.25;4.25;;;;;22.85;40.02;102494.78;2405942;28;44689;-74
2022/07/06 09:50:41;;;;;;;;;6.50;6.00;;;;;22.86;38.35;102496.53;2412159;28;45427;-74
2022/07/06 09:51:55;;;;;;;;;7.00;6.00;;;;;22.81;37.69;102494.13;2412394;28;45260;-74
2022/07/06 09:53:07;;;;;;;;;7.25;6.00;;;;;22.80;37.96;102500.41;2412028;28;46446;-74
2022/07/06 09:54:17;;;;;;;;;5.00;5.00;;;;;22.79;39.37;102502.22;2412196;28;45235;-74
2022/07/06 09:55:28;;;;;;;;;9.25;6.75;;;;;22.83;39.46;102505.59;2407256;28;45489;-74
2022/07/06 09:56:39;;;;;;;;;5.50;5.50;;;;;22.84;39.76;102503.81;2410002;28;45579;-74
2022/07/06 09:57:54;;;;;;;;;7.25;6.00;;;;;22.86;37.89;102504.56;2410392;28;46417;-74
2022/07/06 09:59:09;;;;;;;;;5.50;5.50;;;;;22.87;38.86;102500.91;2402808;28;45311;-74
2022/07/06 10:00:20;;;;;;;;;6.25;5.25;;;;;22.90;39.10;102500.75;2406001;28;46391;-74
2022/07/06 10:01:31;;;;;;;;;5.00;5.00;;;;;22.93;38.96;102503.25;2407530;28;45277;-74
2022/07/06 10:02:41;;;;;;;;;5.50;4.75;;;;;22.97;39.20;102510.16;2405539;28;47224;-74
2022/07/06 10:03:52;;;;;;;;;6.25;4.25;;;;;22.98;38.90;102501.19;2409663;28;45671;-74
2022/07/06 10:05:04;;;;;;;;;4.25;4.00;;;;;23.01;38.47;102503.69;2407519;28;45448;-74
2022/07/06 10:06:15;;;;;;;;;4.75;4.00;;;;;23.03;38.57;102500.91;2411690;28;45593;-74
2022/07/06 10:07:25;;;;;;;;;4.00;3.00;;;;;23.07;38.89;102504.25;2412740;28;45319;-74
2022/07/06 10:08:37;;;;;;;;;5.25;5.00;;;;;23.09;37.48;102511.25;2412696;28;45352;-74
2022/07/06 10:09:48;;;;;;;;;4.00;3.00;;;;;23.11;37.69;102512.03;2412633;28;46502;-74
2022/07/06 10:10:58;;;;;;;;;6.25;5.75;;;;;23.14;37.93;102509.16;2408377;28;44659;-74
2022/07/06 10:12:13;;;;;;;;;3.00;3.00;;;;;23.18;38.02;102506.31;2413149;28;46265;-74
2022/07/06 10:13:26;;;;;;;;;4.00;3.00;;;;;23.20;38.51;102502.59;2413720;28;45247;-74
2022/07/06 10:14:39;;;;;;;;;5.00;5.00;;;;;23.25;38.63;102513.03;2412686;28;45451;-74
2022/07/06 10:15:50;;;;;;;;;4.25;3.75;;;;;23.27;37.26;102508.44;2406150;28;44844;-74
2022/07/06 10:17:02;;;;;;;;;5.00;5.00;;;;;23.30;38.84;102505.59;2410812;28;46147;-74
2022/07/06 10:18:13;;;;;;;;;3.25;3.25;;;;;23.33;38.35;102505.41;2406354;28;45437;-74
2022/07/06 10:19:25;;;;;;;;;4.25;4.25;;;;;23.37;37.78;102506.06;2405171;28;45574;-74
2022/07/06 10:20:38;;;;;;;;;6.00;4.25;;;;;23.38;37.20;102499.75;2411012;28;45220;-74
2022/07/06 10:21:49;;;;;;;;;5.75;5.00;;;;;23.41;37.62;102498.72;2412817;28;47623;-74
2022/07/06 10:23:02;;;;;;;;;4.50;4.50;;;;;23.39;36.44;102506.84;2403790;28;45402;-74
2022/07/06 10:24:13;;;;;;;;;4.50;3.00;;;;;23.40;36.78;102503.22;2404289;28;45303;-75
2022/07/06 10:25:24;;;;;;;;;4.25;1.75;;;;;23.43;37.63;102496.81;2403563;28;45362;-74
2022/07/06 10:26:35;;;;;;;;;3.25;3.25;;;;;23.45;36.86;102494.88;2403787;28;45500;-75
2022/07/06 10:27:47;;;;;;;;;6.25;4.25;;;;;23.48;37.58;102500.06;2411598;28;45318;-74
2022/07/06 10:29:04;;;;;;;;;4.75;4.75;;;;;23.49;36.26;102491.94;2409725;28;45283;-74
2022/07/06 10:30:15;;;;;;;;;3.00;3.00;;;;;23.54;36.87;102491.66;2404905;28;45509;-75
2022/07/06 10:31:30;;;;;;;;;3.00;3.00;;;;;23.56;36.91;102497.81;2405403;28;45391;-75
2022/07/06 10:32:43;;;;;;;;;4.00;3.50;;;;;23.61;37.20;102486.78;2411359;28;45246;-74
2022/07/06 10:33:56;;;;;;;;;6.75;3.25;;;;;23.62;37.36;102483.16;2410060;28;45685;-74